sensor_id;sensor_type;location;lat;lon;timestamp;P1;durP1;ratioP1;P2;durP2;ratioP2
13457;SDS011;6801;53.018;11.560;2023-04-15T00:00:13;5.30;;;3.72;;
13457;SDS011;6801;53.018;11.560;2023-04-15T00:02:44;5.78;;;3.95;;
13457;SDS011;6801;53.018;11.560;2023-04-15T00:05:14;6.25;;;4.20;;
13457;SDS011;6801;53.018;11.560;2023-04-15T00:07:42;6.00;;;3.70;;
13457;SDS011;6801;53.018;11.560;2023-04-15T00:10:11;5.60;;;3.90;;
13457;SDS011;6801;53.018;11.560;2023-04-15T00:12:38;6.65;;;4.45;;
13457;SDS011;6801;53.018;11.560;2023-04-15T00:15:06;4.85;;;3.08;;
13457;SDS011;6801;53.018;11.560;2023-04-15T00:17:34;7.65;;;4.97;;
13457;SDS011;6801;53.018;11.560;2023-04-15T00:20:03;6.75;;;4.22;;
13457;SDS011;6801;53.018;11.560;2023-04-15T00:22:33;8.05;;;5.80;;
13457;SDS011;6801;53.018;11.560;2023-04-15T00:25:00;6.13;;;4.53;;
13457;SDS011;6801;53.018;11.560;2023-04-15T00:27:28;7.65;;;4.43;;
13457;SDS011;6801;53.018;11.560;2023-04-15T00:29:55;7.38;;;4.15;;
13457;SDS011;6801;53.018;11.560;2023-04-15T00:32:22;5.85;;;3.95;;
13457;SDS011;6801;53.018;11.560;2023-04-15T00:34:49;7.20;;;5.07;;
13457;SDS011;6801;53.018;11.560;2023-04-15T00:37:17;7.50;;;5.03;;
13457;SDS011;6801;53.018;11.560;2023-04-15T00:39:45;6.30;;;4.20;;
13457;SDS011;6801;53.018;11.560;2023-04-15T00:42:12;5.93;;;4.13;;
13457;SDS011;6801;53.018;11.560;2023-04-15T00:44:40;6.97;;;4.05;;
13457;SDS011;6801;53.018;11.560;2023-04-15T00:47:08;5.85;;;3.78;;
13457;SDS011;6801;53.018;11.560;2023-04-15T00:49:37;6.55;;;4.32;;
13457;SDS011;6801;53.018;11.560;2023-04-15T00:52:04;5.88;;;4.10;;
13457;SDS011;6801;53.018;11.560;2023-04-15T00:54:32;6.25;;;4.13;;
13457;SDS011;6801;53.018;11.560;2023-04-15T00:57:00;6.28;;;4.05;;
13457;SDS011;6801;53.018;11.560;2023-04-15T00:59:28;5.68;;;3.85;;
13457;SDS011;6801;53.018;11.560;2023-04-15T01:01:56;6.55;;;4.28;;
13457;SDS011;6801;53.018;11.560;2023-04-15T01:04:23;6.22;;;3.80;;
13457;SDS011;6801;53.018;11.560;2023-04-15T01:06:51;5.45;;;3.70;;
13457;SDS011;6801;53.018;11.560;2023-04-15T01:09:18;6.28;;;4.13;;
13457;SDS011;6801;53.018;11.560;2023-04-15T01:11:45;6.90;;;4.60;;
13457;SDS011;6801;53.018;11.560;2023-04-15T01:14:14;7.50;;;4.13;;
13457;SDS011;6801;53.018;11.560;2023-04-15T01:16:41;7.38;;;4.43;;
13457;SDS011;6801;53.018;11.560;2023-04-15T01:19:09;6.55;;;4.35;;
13457;SDS011;6801;53.018;11.560;2023-04-15T01:21:37;6.40;;;3.97;;
13457;SDS011;6801;53.018;11.560;2023-04-15T01:24:05;6.82;;;4.60;;
13457;SDS011;6801;53.018;11.560;2023-04-15T01:26:36;6.43;;;4.35;;
13457;SDS011;6801;53.018;11.560;2023-04-15T01:29:06;7.30;;;3.60;;
13457;SDS011;6801;53.018;11.560;2023-04-15T01:31:33;6.32;;;4.43;;
13457;SDS011;6801;53.018;11.560;2023-04-15T01:34:00;6.00;;;4.30;;
13457;SDS011;6801;53.018;11.560;2023-04-15T01:36:28;6.10;;;4.10;;
13457;SDS011;6801;53.018;11.560;2023-04-15T01:38:55;6.93;;;4.50;;
13457;SDS011;6801;53.018;11.560;2023-04-15T01:41:24;7.68;;;4.82;;
13457;SDS011;6801;53.018;11.560;2023-04-15T01:43:53;6.28;;;4.25;;
13457;SDS011;6801;53.018;11.560;2023-04-15T01:46:22;7.75;;;4.50;;
13457;SDS011;6801;53.018;11.560;2023-04-15T01:48:49;7.22;;;4.80;;
13457;SDS011;6801;53.018;11.560;2023-04-15T01:51:16;6.57;;;4.72;;
13457;SDS011;6801;53.018;11.560;2023-04-15T01:53:44;7.75;;;4.57;;
13457;SDS011;6801;53.018;11.560;2023-04-15T01:56:11;6.70;;;4.78;;
13457;SDS011;6801;53.018;11.560;2023-04-15T01:58:38;6.78;;;4.80;;
13457;SDS011;6801;53.018;11.560;2023-04-15T02:01:07;7.97;;;5.20;;
13457;SDS011;6801;53.018;11.560;2023-04-15T02:03:34;7.50;;;5.22;;
13457;SDS011;6801;53.018;11.560;2023-04-15T02:06:01;8.50;;;5.63;;
13457;SDS011;6801;53.018;11.560;2023-04-15T02:08:28;10.05;;;5.82;;
13457;SDS011;6801;53.018;11.560;2023-04-15T02:10:56;8.10;;;5.55;;
13457;SDS011;6801;53.018;11.560;2023-04-15T02:13:23;9.30;;;6.35;;
13457;SDS011;6801;53.018;11.560;2023-04-15T02:15:51;8.43;;;5.80;;
13457;SDS011;6801;53.018;11.560;2023-04-15T02:18:19;10.50;;;6.88;;
13457;SDS011;6801;53.018;11.560;2023-04-15T02:20:47;13.75;;;6.65;;
13457;SDS011;6801;53.018;11.560;2023-04-15T02:23:14;10.00;;;6.20;;
13457;SDS011;6801;53.018;11.560;2023-04-15T02:25:42;9.15;;;6.03;;
13457;SDS011;6801;53.018;11.560;2023-04-15T02:28:10;9.32;;;6.55;;
13457;SDS011;6801;53.018;11.560;2023-04-15T02:30:37;9.40;;;6.40;;
13457;SDS011;6801;53.018;11.560;2023-04-15T02:33:05;11.32;;;7.55;;
13457;SDS011;6801;53.018;11.560;2023-04-15T02:35:34;10.07;;;6.97;;
13457;SDS011;6801;53.018;11.560;2023-04-15T02:40:30;9.90;;;6.53;;
13457;SDS011;6801;53.018;11.560;2023-04-15T02:42:57;10.70;;;6.53;;
13457;SDS011;6801;53.018;11.560;2023-04-15T02:45:25;11.68;;;7.97;;
13457;SDS011;6801;53.018;11.560;2023-04-15T02:47:52;11.57;;;7.55;;
13457;SDS011;6801;53.018;11.560;2023-04-15T02:50:20;10.90;;;6.75;;
13457;SDS011;6801;53.018;11.560;2023-04-15T02:52:49;15.25;;;7.68;;
13457;SDS011;6801;53.018;11.560;2023-04-15T02:55:16;13.57;;;8.63;;
13457;SDS011;6801;53.018;11.560;2023-04-15T02:57:43;12.27;;;7.38;;
13457;SDS011;6801;53.018;11.560;2023-04-15T03:00:10;12.77;;;8.30;;
13457;SDS011;6801;53.018;11.560;2023-04-15T03:02:40;14.48;;;8.45;;
13457;SDS011;6801;53.018;11.560;2023-04-15T03:05:10;15.27;;;9.10;;
13457;SDS011;6801;53.018;11.560;2023-04-15T03:07:39;12.07;;;7.72;;
13457;SDS011;6801;53.018;11.560;2023-04-15T03:10:08;14.88;;;9.30;;
13457;SDS011;6801;53.018;11.560;2023-04-15T03:12:35;13.68;;;8.60;;
13457;SDS011;6801;53.018;11.560;2023-04-15T03:15:03;15.02;;;9.93;;
13457;SDS011;6801;53.018;11.560;2023-04-15T03:17:35;16.48;;;10.23;;
13457;SDS011;6801;53.018;11.560;2023-04-15T03:20:02;18.85;;;10.23;;
13457;SDS011;6801;53.018;11.560;2023-04-15T03:22:31;15.93;;;9.43;;
13457;SDS011;6801;53.018;11.560;2023-04-15T03:24:58;16.90;;;10.48;;
13457;SDS011;6801;53.018;11.560;2023-04-15T03:27:27;14.52;;;8.85;;
13457;SDS011;6801;53.018;11.560;2023-04-15T03:29:58;20.70;;;11.75;;
13457;SDS011;6801;53.018;11.560;2023-04-15T03:32:26;19.67;;;12.00;;
13457;SDS011;6801;53.018;11.560;2023-04-15T03:34:54;21.00;;;11.70;;
13457;SDS011;6801;53.018;11.560;2023-04-15T03:37:21;23.13;;;13.50;;
13457;SDS011;6801;53.018;11.560;2023-04-15T03:39:48;19.75;;;11.77;;
13457;SDS011;6801;53.018;11.560;2023-04-15T03:42:15;17.48;;;10.50;;
13457;SDS011;6801;53.018;11.560;2023-04-15T03:44:43;21.02;;;12.00;;
13457;SDS011;6801;53.018;11.560;2023-04-15T03:47:10;22.02;;;12.50;;
13457;SDS011;6801;53.018;11.560;2023-04-15T03:49:37;21.63;;;12.70;;
13457;SDS011;6801;53.018;11.560;2023-04-15T03:52:04;19.50;;;11.98;;
13457;SDS011;6801;53.018;11.560;2023-04-15T03:54:31;23.95;;;14.40;;
13457;SDS011;6801;53.018;11.560;2023-04-15T03:56:58;26.48;;;15.07;;
13457;SDS011;6801;53.018;11.560;2023-04-15T03:59:25;27.92;;;18.02;;
13457;SDS011;6801;53.018;11.560;2023-04-15T04:01:54;23.98;;;13.25;;
13457;SDS011;6801;53.018;11.560;2023-04-15T04:04:21;22.23;;;13.07;;
13457;SDS011;6801;53.018;11.560;2023-04-15T04:06:48;23.38;;;13.77;;
13457;SDS011;6801;53.018;11.560;2023-04-15T04:09:15;24.30;;;14.13;;
13457;SDS011;6801;53.018;11.560;2023-04-15T04:11:42;23.88;;;13.32;;
13457;SDS011;6801;53.018;11.560;2023-04-15T04:14:10;27.52;;;15.88;;
13457;SDS011;6801;53.018;11.560;2023-04-15T04:16:37;29.27;;;17.67;;
13457;SDS011;6801;53.018;11.560;2023-04-15T04:19:05;26.23;;;15.48;;
13457;SDS011;6801;53.018;11.560;2023-04-15T04:21:32;24.33;;;14.93;;
13457;SDS011;6801;53.018;11.560;2023-04-15T04:24:00;25.90;;;14.73;;
13457;SDS011;6801;53.018;11.560;2023-04-15T04:26:27;21.08;;;12.52;;
13457;SDS011;6801;53.018;11.560;2023-04-15T04:28:54;21.65;;;12.45;;
13457;SDS011;6801;53.018;11.560;2023-04-15T04:31:21;24.40;;;13.27;;
13457;SDS011;6801;53.018;11.560;2023-04-15T04:33:48;20.55;;;12.95;;
13457;SDS011;6801;53.018;11.560;2023-04-15T04:36:16;27.42;;;17.42;;
13457;SDS011;6801;53.018;11.560;2023-04-15T04:38:43;22.35;;;14.43;;
13457;SDS011;6801;53.018;11.560;2023-04-15T04:41:10;22.63;;;15.32;;
13457;SDS011;6801;53.018;11.560;2023-04-15T04:43:37;22.60;;;14.48;;
13457;SDS011;6801;53.018;11.560;2023-04-15T04:46:04;23.33;;;13.55;;
13457;SDS011;6801;53.018;11.560;2023-04-15T04:48:31;21.58;;;12.68;;
13457;SDS011;6801;53.018;11.560;2023-04-15T04:50:58;23.15;;;14.00;;
13457;SDS011;6801;53.018;11.560;2023-04-15T04:53:26;25.20;;;15.43;;
13457;SDS011;6801;53.018;11.560;2023-04-15T04:55:53;24.75;;;14.38;;
13457;SDS011;6801;53.018;11.560;2023-04-15T04:58:20;22.35;;;13.38;;
13457;SDS011;6801;53.018;11.560;2023-04-15T05:00:47;21.95;;;13.52;;
13457;SDS011;6801;53.018;11.560;2023-04-15T05:03:14;23.95;;;14.90;;
13457;SDS011;6801;53.018;11.560;2023-04-15T05:05:41;30.02;;;18.80;;
13457;SDS011;6801;53.018;11.560;2023-04-15T05:08:08;27.67;;;17.20;;
13457;SDS011;6801;53.018;11.560;2023-04-15T05:10:36;25.70;;;15.63;;
13457;SDS011;6801;53.018;11.560;2023-04-15T05:13:03;30.65;;;17.77;;
13457;SDS011;6801;53.018;11.560;2023-04-15T05:15:30;29.15;;;17.52;;
13457;SDS011;6801;53.018;11.560;2023-04-15T05:17:59;28.17;;;18.42;;
13457;SDS011;6801;53.018;11.560;2023-04-15T05:20:26;32.70;;;21.05;;
13457;SDS011;6801;53.018;11.560;2023-04-15T05:22:52;23.58;;;14.55;;
13457;SDS011;6801;53.018;11.560;2023-04-15T05:25:19;24.02;;;14.90;;
13457;SDS011;6801;53.018;11.560;2023-04-15T05:27:48;26.42;;;16.23;;
13457;SDS011;6801;53.018;11.560;2023-04-15T05:30:15;26.83;;;16.50;;
13457;SDS011;6801;53.018;11.560;2023-04-15T05:32:42;29.27;;;17.40;;
13457;SDS011;6801;53.018;11.560;2023-04-15T05:35:09;31.35;;;18.83;;
13457;SDS011;6801;53.018;11.560;2023-04-15T05:37:36;29.95;;;17.13;;
13457;SDS011;6801;53.018;11.560;2023-04-15T05:40:03;28.75;;;17.15;;
13457;SDS011;6801;53.018;11.560;2023-04-15T05:42:31;33.78;;;21.70;;
13457;SDS011;6801;53.018;11.560;2023-04-15T05:44:59;29.30;;;16.63;;
13457;SDS011;6801;53.018;11.560;2023-04-15T05:47:29;26.98;;;16.65;;
13457;SDS011;6801;53.018;11.560;2023-04-15T05:49:56;28.15;;;16.88;;
13457;SDS011;6801;53.018;11.560;2023-04-15T05:52:24;31.55;;;18.65;;
13457;SDS011;6801;53.018;11.560;2023-04-15T05:54:51;27.95;;;15.00;;
13457;SDS011;6801;53.018;11.560;2023-04-15T05:57:18;28.92;;;18.15;;
13457;SDS011;6801;53.018;11.560;2023-04-15T05:59:45;31.45;;;21.50;;
13457;SDS011;6801;53.018;11.560;2023-04-15T06:02:13;28.92;;;17.58;;
13457;SDS011;6801;53.018;11.560;2023-04-15T06:04:40;29.95;;;17.13;;
13457;SDS011;6801;53.018;11.560;2023-04-15T06:07:07;28.35;;;16.27;;
13457;SDS011;6801;53.018;11.560;2023-04-15T06:09:35;32.05;;;17.52;;
13457;SDS011;6801;53.018;11.560;2023-04-15T06:12:02;26.42;;;16.05;;
13457;SDS011;6801;53.018;11.560;2023-04-15T06:14:29;28.98;;;18.02;;
13457;SDS011;6801;53.018;11.560;2023-04-15T06:16:55;27.83;;;16.42;;
13457;SDS011;6801;53.018;11.560;2023-04-15T06:19:24;24.42;;;15.65;;
13457;SDS011;6801;53.018;11.560;2023-04-15T06:21:51;29.20;;;17.60;;
13457;SDS011;6801;53.018;11.560;2023-04-15T06:24:18;30.50;;;18.48;;
13457;SDS011;6801;53.018;11.560;2023-04-15T06:26:45;26.35;;;16.88;;
13457;SDS011;6801;53.018;11.560;2023-04-15T06:29:13;28.58;;;17.70;;
13457;SDS011;6801;53.018;11.560;2023-04-15T06:31:41;26.70;;;16.48;;
13457;SDS011;6801;53.018;11.560;2023-04-15T06:34:08;28.33;;;16.83;;
13457;SDS011;6801;53.018;11.560;2023-04-15T06:36:37;33.80;;;19.90;;
13457;SDS011;6801;53.018;11.560;2023-04-15T06:39:08;32.65;;;18.85;;
13457;SDS011;6801;53.018;11.560;2023-04-15T06:41:35;34.85;;;20.17;;
13457;SDS011;6801;53.018;11.560;2023-04-15T06:44:02;38.03;;;22.50;;
13457;SDS011;6801;53.018;11.560;2023-04-15T06:46:30;31.55;;;18.45;;
13457;SDS011;6801;53.018;11.560;2023-04-15T06:48:57;29.42;;;17.23;;
13457;SDS011;6801;53.018;11.560;2023-04-15T06:51:24;33.10;;;18.73;;
13457;SDS011;6801;53.018;11.560;2023-04-15T06:53:53;34.80;;;20.75;;
13457;SDS011;6801;53.018;11.560;2023-04-15T06:56:20;30.35;;;18.02;;
13457;SDS011;6801;53.018;11.560;2023-04-15T06:58:47;32.20;;;18.98;;
13457;SDS011;6801;53.018;11.560;2023-04-15T07:01:14;32.28;;;18.90;;
13457;SDS011;6801;53.018;11.560;2023-04-15T07:03:41;31.40;;;19.35;;
13457;SDS011;6801;53.018;11.560;2023-04-15T07:06:08;32.97;;;20.88;;
13457;SDS011;6801;53.018;11.560;2023-04-15T07:08:35;38.15;;;21.85;;
13457;SDS011;6801;53.018;11.560;2023-04-15T07:11:03;37.33;;;22.73;;
13457;SDS011;6801;53.018;11.560;2023-04-15T07:13:31;37.90;;;22.65;;
13457;SDS011;6801;53.018;11.560;2023-04-15T07:15:58;37.58;;;22.23;;
13457;SDS011;6801;53.018;11.560;2023-04-15T07:18:25;31.65;;;20.25;;
13457;SDS011;6801;53.018;11.560;2023-04-15T07:20:52;35.42;;;22.13;;
13457;SDS011;6801;53.018;11.560;2023-04-15T07:23:18;34.45;;;20.02;;
13457;SDS011;6801;53.018;11.560;2023-04-15T07:25:45;36.50;;;21.23;;
13457;SDS011;6801;53.018;11.560;2023-04-15T07:28:14;35.15;;;20.95;;
13457;SDS011;6801;53.018;11.560;2023-04-15T07:30:41;38.35;;;23.65;;
13457;SDS011;6801;53.018;11.560;2023-04-15T07:33:08;36.13;;;20.92;;
13457;SDS011;6801;53.018;11.560;2023-04-15T07:35:35;35.20;;;21.20;;
13457;SDS011;6801;53.018;11.560;2023-04-15T07:38:02;36.47;;;18.77;;
13457;SDS011;6801;53.018;11.560;2023-04-15T07:40:28;36.33;;;23.63;;
13457;SDS011;6801;53.018;11.560;2023-04-15T07:42:56;31.95;;;17.85;;
13457;SDS011;6801;53.018;11.560;2023-04-15T07:45:24;32.38;;;19.58;;
13457;SDS011;6801;53.018;11.560;2023-04-15T07:47:51;33.75;;;20.30;;
13457;SDS011;6801;53.018;11.560;2023-04-15T07:50:20;30.77;;;20.10;;
13457;SDS011;6801;53.018;11.560;2023-04-15T07:52:47;31.40;;;18.92;;
13457;SDS011;6801;53.018;11.560;2023-04-15T07:55:15;35.38;;;21.60;;
13457;SDS011;6801;53.018;11.560;2023-04-15T07:57:44;30.60;;;18.08;;
13457;SDS011;6801;53.018;11.560;2023-04-15T08:00:11;29.27;;;17.23;;
13457;SDS011;6801;53.018;11.560;2023-04-15T08:02:41;32.78;;;20.88;;
13457;SDS011;6801;53.018;11.560;2023-04-15T08:05:09;27.95;;;17.77;;
13457;SDS011;6801;53.018;11.560;2023-04-15T08:07:36;29.60;;;17.15;;
13457;SDS011;6801;53.018;11.560;2023-04-15T08:10:03;27.60;;;17.75;;
13457;SDS011;6801;53.018;11.560;2023-04-15T08:12:31;36.00;;;20.02;;
13457;SDS011;6801;53.018;11.560;2023-04-15T08:14:58;29.65;;;17.48;;
13457;SDS011;6801;53.018;11.560;2023-04-15T08:17:26;30.05;;;19.38;;
13457;SDS011;6801;53.018;11.560;2023-04-15T08:19:54;26.70;;;17.15;;
13457;SDS011;6801;53.018;11.560;2023-04-15T08:22:21;24.88;;;17.80;;
13457;SDS011;6801;53.018;11.560;2023-04-15T08:24:48;30.55;;;18.52;;
13457;SDS011;6801;53.018;11.560;2023-04-15T08:27:15;23.70;;;14.32;;
13457;SDS011;6801;53.018;11.560;2023-04-15T08:29:43;27.85;;;19.05;;
13457;SDS011;6801;53.018;11.560;2023-04-15T08:32:10;23.52;;;16.05;;
13457;SDS011;6801;53.018;11.560;2023-04-15T08:34:37;22.20;;;13.98;;
13457;SDS011;6801;53.018;11.560;2023-04-15T08:37:05;20.75;;;14.05;;
13457;SDS011;6801;53.018;11.560;2023-04-15T08:39:32;29.40;;;16.95;;
13457;SDS011;6801;53.018;11.560;2023-04-15T08:42:00;22.48;;;15.20;;
13457;SDS011;6801;53.018;11.560;2023-04-15T08:44:28;20.80;;;14.63;;
13457;SDS011;6801;53.018;11.560;2023-04-15T08:46:55;22.42;;;15.32;;
13457;SDS011;6801;53.018;11.560;2023-04-15T08:49:25;26.67;;;15.15;;
13457;SDS011;6801;53.018;11.560;2023-04-15T08:51:53;24.38;;;14.80;;
13457;SDS011;6801;53.018;11.560;2023-04-15T08:54:22;20.98;;;13.82;;
13457;SDS011;6801;53.018;11.560;2023-04-15T08:56:50;26.60;;;18.05;;
13457;SDS011;6801;53.018;11.560;2023-04-15T08:59:18;20.70;;;14.23;;
13457;SDS011;6801;53.018;11.560;2023-04-15T09:01:46;22.50;;;15.57;;
13457;SDS011;6801;53.018;11.560;2023-04-15T09:04:14;24.73;;;16.88;;
13457;SDS011;6801;53.018;11.560;2023-04-15T09:06:42;24.77;;;16.75;;
13457;SDS011;6801;53.018;11.560;2023-04-15T09:09:09;21.60;;;14.70;;
13457;SDS011;6801;53.018;11.560;2023-04-15T09:11:39;22.58;;;16.42;;
13457;SDS011;6801;53.018;11.560;2023-04-15T09:14:07;24.63;;;16.02;;
13457;SDS011;6801;53.018;11.560;2023-04-15T09:19:22;23.23;;;15.57;;
13457;SDS011;6801;53.018;11.560;2023-04-15T09:21:49;19.77;;;13.52;;
13457;SDS011;6801;53.018;11.560;2023-04-15T09:24:18;18.00;;;11.88;;
13457;SDS011;6801;53.018;11.560;2023-04-15T09:26:47;18.85;;;12.95;;
13457;SDS011;6801;53.018;11.560;2023-04-15T09:29:18;20.20;;;12.38;;
13457;SDS011;6801;53.018;11.560;2023-04-15T09:31:45;18.27;;;12.23;;
13457;SDS011;6801;53.018;11.560;2023-04-15T09:34:12;16.90;;;11.93;;
13457;SDS011;6801;53.018;11.560;2023-04-15T09:36:51;19.98;;;14.00;;
13457;SDS011;6801;53.018;11.560;2023-04-15T09:39:19;19.73;;;13.40;;
13457;SDS011;6801;53.018;11.560;2023-04-15T09:41:47;17.80;;;13.30;;
13457;SDS011;6801;53.018;11.560;2023-04-15T09:44:30;18.55;;;12.27;;
13457;SDS011;6801;53.018;11.560;2023-04-15T09:46:57;18.75;;;13.23;;
13457;SDS011;6801;53.018;11.560;2023-04-15T09:49:24;18.05;;;13.10;;
13457;SDS011;6801;53.018;11.560;2023-04-15T09:51:56;19.13;;;12.80;;
13457;SDS011;6801;53.018;11.560;2023-04-15T09:54:27;17.90;;;13.32;;
13457;SDS011;6801;53.018;11.560;2023-04-15T09:57:05;17.90;;;14.77;;
13457;SDS011;6801;53.018;11.560;2023-04-15T09:59:32;15.57;;;10.38;;
13457;SDS011;6801;53.018;11.560;2023-04-15T10:01:59;15.00;;;11.98;;
13457;SDS011;6801;53.018;11.560;2023-04-15T10:04:29;14.63;;;10.68;;
13457;SDS011;6801;53.018;11.560;2023-04-15T10:09:29;14.73;;;12.00;;
13457;SDS011;6801;53.018;11.560;2023-04-15T10:11:57;17.10;;;11.82;;
13457;SDS011;6801;53.018;11.560;2023-04-15T10:14:26;18.15;;;12.85;;
13457;SDS011;6801;53.018;11.560;2023-04-15T10:16:55;15.85;;;12.48;;
13457;SDS011;6801;53.018;11.560;2023-04-15T10:19:26;16.70;;;11.65;;
13457;SDS011;6801;53.018;11.560;2023-04-15T10:21:55;17.63;;;10.90;;
13457;SDS011;6801;53.018;11.560;2023-04-15T10:24:22;16.48;;;12.40;;
13457;SDS011;6801;53.018;11.560;2023-04-15T10:26:50;15.40;;;9.90;;
13457;SDS011;6801;53.018;11.560;2023-04-15T10:29:17;18.17;;;11.98;;
13457;SDS011;6801;53.018;11.560;2023-04-15T10:31:46;13.90;;;10.63;;
13457;SDS011;6801;53.018;11.560;2023-04-15T10:34:14;14.45;;;9.43;;
13457;SDS011;6801;53.018;11.560;2023-04-15T10:36:41;12.93;;;9.15;;
13457;SDS011;6801;53.018;11.560;2023-04-15T10:42:07;14.68;;;9.13;;
13457;SDS011;6801;53.018;11.560;2023-04-15T10:44:35;11.70;;;9.00;;
13457;SDS011;6801;53.018;11.560;2023-04-15T10:47:05;15.75;;;9.85;;
13457;SDS011;6801;53.018;11.560;2023-04-15T10:49:41;11.52;;;9.05;;
13457;SDS011;6801;53.018;11.560;2023-04-15T10:52:10;11.85;;;9.05;;
13457;SDS011;6801;53.018;11.560;2023-04-15T10:54:37;12.63;;;10.20;;
13457;SDS011;6801;53.018;11.560;2023-04-15T10:57:08;11.20;;;9.27;;
13457;SDS011;6801;53.018;11.560;2023-04-15T11:02:40;12.82;;;9.60;;
13457;SDS011;6801;53.018;11.560;2023-04-15T11:05:08;13.35;;;10.82;;
13457;SDS011;6801;53.018;11.560;2023-04-15T11:07:36;13.68;;;10.10;;
13457;SDS011;6801;53.018;11.560;2023-04-15T11:13:28;11.80;;;9.35;;
13457;SDS011;6801;53.018;11.560;2023-04-15T11:15:57;11.75;;;8.65;;
13457;SDS011;6801;53.018;11.560;2023-04-15T11:18:33;12.10;;;9.20;;
13457;SDS011;6801;53.018;11.560;2023-04-15T11:21:01;11.90;;;9.57;;
13457;SDS011;6801;53.018;11.560;2023-04-15T11:23:31;15.68;;;11.38;;
13457;SDS011;6801;53.018;11.560;2023-04-15T11:26:03;12.52;;;9.60;;
13457;SDS011;6801;53.018;11.560;2023-04-15T11:28:33;13.23;;;9.48;;
13457;SDS011;6801;53.018;11.560;2023-04-15T11:31:05;13.27;;;9.60;;
13457;SDS011;6801;53.018;11.560;2023-04-15T11:33:36;11.75;;;8.95;;
13457;SDS011;6801;53.018;11.560;2023-04-15T11:36:04;12.85;;;9.18;;
13457;SDS011;6801;53.018;11.560;2023-04-15T11:38:31;10.55;;;8.05;;
13457;SDS011;6801;53.018;11.560;2023-04-15T11:40:59;12.13;;;7.95;;
13457;SDS011;6801;53.018;11.560;2023-04-15T11:43:26;10.75;;;8.70;;
13457;SDS011;6801;53.018;11.560;2023-04-15T11:46:00;13.20;;;9.82;;
13457;SDS011;6801;53.018;11.560;2023-04-15T11:48:29;12.10;;;8.48;;
13457;SDS011;6801;53.018;11.560;2023-04-15T11:50:59;11.30;;;7.78;;
13457;SDS011;6801;53.018;11.560;2023-04-15T11:53:34;11.55;;;8.60;;
13457;SDS011;6801;53.018;11.560;2023-04-15T11:56:04;12.90;;;8.63;;
13457;SDS011;6801;53.018;11.560;2023-04-15T11:58:33;11.75;;;8.68;;
13457;SDS011;6801;53.018;11.560;2023-04-15T12:01:02;11.77;;;8.85;;
13457;SDS011;6801;53.018;11.560;2023-04-15T12:03:31;12.20;;;8.02;;
13457;SDS011;6801;53.018;11.560;2023-04-15T12:06:14;9.85;;;7.63;;
13457;SDS011;6801;53.018;11.560;2023-04-15T12:11:33;10.88;;;8.27;;
13457;SDS011;6801;53.018;11.560;2023-04-15T12:14:03;11.18;;;6.93;;
13457;SDS011;6801;53.018;11.560;2023-04-15T12:16:35;11.05;;;8.93;;
13457;SDS011;6801;53.018;11.560;2023-04-15T12:19:04;11.77;;;7.32;;
13457;SDS011;6801;53.018;11.560;2023-04-15T12:24:03;11.40;;;7.45;;
13457;SDS011;6801;53.018;11.560;2023-04-15T12:26:33;11.40;;;7.85;;
13457;SDS011;6801;53.018;11.560;2023-04-15T12:29:02;11.52;;;7.35;;
13457;SDS011;6801;53.018;11.560;2023-04-15T12:31:31;12.68;;;8.25;;
13457;SDS011;6801;53.018;11.560;2023-04-15T12:33:58;12.02;;;8.13;;
13457;SDS011;6801;53.018;11.560;2023-04-15T12:36:26;10.60;;;7.38;;
13457;SDS011;6801;53.018;11.560;2023-04-15T12:38:55;11.45;;;7.63;;
13457;SDS011;6801;53.018;11.560;2023-04-15T12:41:22;11.90;;;9.07;;
13457;SDS011;6801;53.018;11.560;2023-04-15T12:43:49;11.20;;;8.40;;
13457;SDS011;6801;53.018;11.560;2023-04-15T12:46:16;10.27;;;8.00;;
13457;SDS011;6801;53.018;11.560;2023-04-15T12:48:44;8.70;;;6.90;;
13457;SDS011;6801;53.018;11.560;2023-04-15T12:51:11;14.25;;;7.97;;
13457;SDS011;6801;53.018;11.560;2023-04-15T12:53:39;9.85;;;6.75;;
13457;SDS011;6801;53.018;11.560;2023-04-15T12:56:07;9.48;;;7.68;;
13457;SDS011;6801;53.018;11.560;2023-04-15T12:58:34;9.75;;;7.40;;
13457;SDS011;6801;53.018;11.560;2023-04-15T13:01:01;10.07;;;7.10;;
13457;SDS011;6801;53.018;11.560;2023-04-15T13:03:28;10.68;;;8.63;;
13457;SDS011;6801;53.018;11.560;2023-04-15T13:05:55;11.07;;;7.22;;
13457;SDS011;6801;53.018;11.560;2023-04-15T13:08:22;9.30;;;7.30;;
13457;SDS011;6801;53.018;11.560;2023-04-15T13:10:49;11.43;;;6.50;;
13457;SDS011;6801;53.018;11.560;2023-04-15T13:13:17;14.10;;;8.35;;
13457;SDS011;6801;53.018;11.560;2023-04-15T13:15:44;9.70;;;7.53;;
13457;SDS011;6801;53.018;11.560;2023-04-15T13:18:11;14.55;;;8.10;;
13457;SDS011;6801;53.018;11.560;2023-04-15T13:20:38;10.88;;;8.13;;
13457;SDS011;6801;53.018;11.560;2023-04-15T13:23:05;18.38;;;9.15;;
13457;SDS011;6801;53.018;11.560;2023-04-15T13:25:32;10.65;;;7.85;;
13457;SDS011;6801;53.018;11.560;2023-04-15T13:27:59;10.02;;;7.05;;
13457;SDS011;6801;53.018;11.560;2023-04-15T13:30:27;12.45;;;8.32;;
13457;SDS011;6801;53.018;11.560;2023-04-15T13:32:55;9.85;;;7.10;;
13457;SDS011;6801;53.018;11.560;2023-04-15T13:35:22;9.43;;;7.03;;
13457;SDS011;6801;53.018;11.560;2023-04-15T13:37:49;10.95;;;7.10;;
13457;SDS011;6801;53.018;11.560;2023-04-15T13:40:16;10.15;;;7.13;;
13457;SDS011;6801;53.018;11.560;2023-04-15T13:42:45;8.98;;;7.03;;
13457;SDS011;6801;53.018;11.560;2023-04-15T13:45:12;24.10;;;7.07;;
13457;SDS011;6801;53.018;11.560;2023-04-15T13:47:41;10.05;;;7.25;;
13457;SDS011;6801;53.018;11.560;2023-04-15T13:50:09;7.72;;;5.85;;
13457;SDS011;6801;53.018;11.560;2023-04-15T13:52:36;11.95;;;8.07;;
13457;SDS011;6801;53.018;11.560;2023-04-15T13:55:03;11.38;;;7.50;;
13457;SDS011;6801;53.018;11.560;2023-04-15T13:57:31;10.07;;;7.25;;
13457;SDS011;6801;53.018;11.560;2023-04-15T13:59:58;14.95;;;7.93;;
13457;SDS011;6801;53.018;11.560;2023-04-15T14:02:25;10.07;;;7.07;;
13457;SDS011;6801;53.018;11.560;2023-04-15T14:04:53;11.05;;;7.50;;
13457;SDS011;6801;53.018;11.560;2023-04-15T14:07:20;10.73;;;7.20;;
13457;SDS011;6801;53.018;11.560;2023-04-15T14:09:47;10.43;;;7.55;;
13457;SDS011;6801;53.018;11.560;2023-04-15T14:12:14;11.15;;;7.32;;
13457;SDS011;6801;53.018;11.560;2023-04-15T14:14:41;13.02;;;6.93;;
13457;SDS011;6801;53.018;11.560;2023-04-15T14:17:08;10.65;;;6.68;;
13457;SDS011;6801;53.018;11.560;2023-04-15T14:19:35;9.70;;;7.03;;
13457;SDS011;6801;53.018;11.560;2023-04-15T14:22:03;8.80;;;6.82;;
13457;SDS011;6801;53.018;11.560;2023-04-15T14:24:31;12.02;;;7.60;;
13457;SDS011;6801;53.018;11.560;2023-04-15T14:26:58;9.13;;;6.78;;
13457;SDS011;6801;53.018;11.560;2023-04-15T14:29:26;10.40;;;6.70;;
13457;SDS011;6801;53.018;11.560;2023-04-15T14:31:53;9.30;;;6.35;;
13457;SDS011;6801;53.018;11.560;2023-04-15T14:34:21;11.02;;;7.18;;
13457;SDS011;6801;53.018;11.560;2023-04-15T14:36:49;8.38;;;6.32;;
13457;SDS011;6801;53.018;11.560;2023-04-15T14:39:18;9.75;;;6.68;;
13457;SDS011;6801;53.018;11.560;2023-04-15T14:41:45;10.00;;;6.70;;
13457;SDS011;6801;53.018;11.560;2023-04-15T14:44:12;9.55;;;7.65;;
13457;SDS011;6801;53.018;11.560;2023-04-15T14:46:39;9.60;;;7.30;;
13457;SDS011;6801;53.018;11.560;2023-04-15T14:49:06;11.18;;;6.32;;
13457;SDS011;6801;53.018;11.560;2023-04-15T14:51:33;9.15;;;7.07;;
13457;SDS011;6801;53.018;11.560;2023-04-15T14:54:00;9.13;;;6.40;;
13457;SDS011;6801;53.018;11.560;2023-04-15T14:56:29;11.77;;;6.43;;